createdAt,value
2022-12-27T00:02:18.962Z,0.83
2022-12-27T00:04:46.539Z,0.83
2022-12-27T00:07:14.040Z,1.00
2022-12-27T00:09:41.550Z,0.90
2022-12-27T00:12:09.255Z,0.80
2022-12-27T00:14:36.734Z,0.77
2022-12-27T00:17:04.203Z,0.80
2022-12-27T00:19:31.647Z,0.70
2022-12-27T00:21:59.598Z,0.90
2022-12-27T00:24:27.066Z,1.00
2022-12-27T00:26:54.564Z,0.90
2022-12-27T00:29:22.091Z,0.93
2022-12-27T00:31:49.580Z,1.00
2022-12-27T00:34:17.086Z,1.00
2022-12-27T00:36:44.708Z,1.00
2022-12-27T00:39:12.391Z,0.97
2022-12-27T00:41:40.066Z,1.13
2022-12-27T00:44:07.621Z,0.97
2022-12-27T00:46:35.023Z,1.30
2022-12-27T00:49:02.670Z,1.00
2022-12-27T00:51:30.328Z,1.20
2022-12-27T00:53:58.078Z,1.30
2022-12-27T00:56:26.861Z,1.20
2022-12-27T00:58:58.847Z,1.10
2022-12-27T01:01:27.297Z,1.20
2022-12-27T01:03:54.845Z,0.70
2022-12-27T01:06:23.349Z,0.80
2022-12-27T01:08:51.007Z,0.87
2022-12-27T01:11:19.223Z,0.60
2022-12-27T01:13:46.995Z,0.70
2022-12-27T01:16:19.045Z,0.67
2022-12-27T01:18:46.738Z,0.70
2022-12-27T01:21:14.955Z,0.70
2022-12-27T01:23:42.538Z,0.70
2022-12-27T01:26:12.448Z,0.87
2022-12-27T01:28:39.968Z,0.87
2022-12-27T01:31:08.355Z,0.80
2022-12-27T01:33:35.939Z,0.97
2022-12-27T01:36:29.680Z,0.70
2022-12-27T01:38:59.074Z,0.90
2022-12-27T01:41:53.542Z,1.20
2022-12-27T01:44:43.809Z,0.67
2022-12-27T01:47:17.384Z,1.00
2022-12-27T01:49:58.668Z,1.10
2022-12-27T01:52:27.532Z,1.40
2022-12-27T01:54:55.923Z,1.10
2022-12-27T01:57:23.468Z,0.90
2022-12-27T01:59:51.038Z,1.20
2022-12-27T02:02:18.581Z,1.00
2022-12-27T02:04:46.283Z,0.90
2022-12-27T02:07:13.795Z,1.00
2022-12-27T02:09:43.703Z,1.00
2022-12-27T02:12:11.566Z,0.90
2022-12-27T02:14:38.997Z,1.20
2022-12-27T02:17:08.293Z,0.80
2022-12-27T02:19:41.686Z,0.93
2022-12-27T02:22:27.437Z,0.80
2022-12-27T02:24:57.931Z,0.80
2022-12-27T02:27:33.987Z,0.97
2022-12-27T02:30:04.452Z,0.70
2022-12-27T02:32:31.966Z,0.77
2022-12-27T02:35:04.152Z,0.70
2022-12-27T02:37:33.913Z,0.90
2022-12-27T02:40:22.988Z,0.90
2022-12-27T02:43:09.986Z,0.70
2022-12-27T02:45:59.793Z,0.90
2022-12-27T02:48:46.223Z,1.00
2022-12-27T02:51:44.764Z,0.90
2022-12-27T02:54:21.079Z,1.00
2022-12-27T02:57:11.212Z,0.70
2022-12-27T03:00:15.861Z,0.90
2022-12-27T03:03:02.069Z,0.70
2022-12-27T03:05:43.238Z,1.00
2022-12-27T03:08:24.091Z,0.90
2022-12-27T03:11:18.720Z,0.90
2022-12-27T03:14:13.679Z,1.10
2022-12-27T03:16:41.746Z,0.90
2022-12-27T03:19:09.426Z,1.30
2022-12-27T03:21:57.607Z,1.00
2022-12-27T03:24:47.361Z,0.90
2022-12-27T03:27:28.637Z,0.93
2022-12-27T03:30:16.183Z,1.00
2022-12-27T03:33:05.988Z,0.90
2022-12-27T03:35:38.995Z,0.90
2022-12-27T03:38:09.397Z,1.00
2022-12-27T03:41:03.923Z,1.13
2022-12-27T03:43:31.960Z,1.10
2022-12-27T03:46:18.030Z,1.10
2022-12-27T03:48:59.812Z,1.10
2022-12-27T03:51:28.554Z,1.10
2022-12-27T03:54:00.046Z,1.00
2022-12-27T03:56:27.547Z,1.00
2022-12-27T03:58:55.791Z,1.10
2022-12-27T04:01:23.377Z,1.00
2022-12-27T04:03:50.875Z,1.10
2022-12-27T04:06:18.394Z,0.93
2022-12-27T04:09:04.437Z,1.00
2022-12-27T04:11:50.557Z,0.93
2022-12-27T04:14:36.902Z,1.00
2022-12-27T04:27:31.521Z,1.10
2022-12-27T04:30:17.507Z,0.90
2022-12-27T04:33:03.692Z,1.10
2022-12-27T04:35:31.009Z,1.00
2022-12-27T04:37:58.416Z,0.90
2022-12-27T04:40:44.573Z,0.90
2022-12-27T04:43:30.562Z,1.00
2022-12-27T04:46:16.941Z,0.87
2022-12-27T04:49:03.151Z,1.40
2022-12-27T04:51:49.088Z,1.17
2022-12-27T04:54:39.624Z,1.00
2022-12-27T04:57:07.027Z,1.17
2022-12-27T04:59:53.124Z,1.50
2022-12-27T05:02:20.990Z,1.10
2022-12-27T05:04:48.790Z,0.90
2022-12-27T05:07:35.353Z,0.80
2022-12-27T05:10:22.701Z,0.87
2022-12-27T05:13:09.039Z,2.60
2022-12-27T05:15:36.349Z,10.43
2022-12-27T05:18:03.657Z,22.13
2022-12-27T05:20:31.031Z,8.87
2022-12-27T05:23:16.960Z,17.73
2022-12-27T05:25:45.524Z,14.63
2022-12-27T05:28:13.574Z,10.73
2022-12-27T05:30:42.210Z,6.43
2022-12-27T05:33:09.920Z,5.23
2022-12-27T05:35:37.648Z,4.77
2022-12-27T05:38:05.612Z,3.97
2022-12-27T05:40:33.406Z,3.47
2022-12-27T05:43:02.334Z,1.90
2022-12-27T05:45:30.519Z,1.80
2022-12-27T05:47:59.971Z,1.00
2022-12-27T05:50:27.502Z,1.03
2022-12-27T05:53:10.140Z,1.20
2022-12-27T05:55:37.623Z,1.23
2022-12-27T05:58:04.960Z,1.50
2022-12-27T06:00:32.449Z,1.80
2022-12-27T06:02:59.917Z,1.63
2022-12-27T06:05:27.848Z,1.60
2022-12-27T06:07:55.207Z,1.30
2022-12-27T06:10:22.565Z,1.20
2022-12-27T06:12:49.917Z,0.97
2022-12-27T06:15:17.268Z,0.93
2022-12-27T06:17:44.679Z,1.10
2022-12-27T06:20:12.136Z,1.13
2022-12-27T06:22:39.451Z,0.90
2022-12-27T06:25:10.808Z,1.00
2022-12-27T06:27:41.816Z,0.70
2022-12-27T06:30:12.238Z,0.90
2022-12-27T06:32:39.635Z,0.90
2022-12-27T06:35:07.419Z,1.00
2022-12-27T06:37:35.976Z,1.10
2022-12-27T06:40:03.295Z,0.90
2022-12-27T06:42:32.211Z,0.97
2022-12-27T06:44:59.589Z,1.03
2022-12-27T06:47:26.923Z,1.10
2022-12-27T06:49:55.800Z,1.10
2022-12-27T06:52:23.428Z,1.10
2022-12-27T06:54:50.852Z,1.20
2022-12-27T06:57:18.281Z,0.90
2022-12-27T06:59:50.894Z,0.90
2022-12-27T07:02:21.240Z,0.90
2022-12-27T07:04:48.737Z,1.00
2022-12-27T07:07:16.270Z,1.00
2022-12-27T07:09:43.606Z,1.00
2022-12-27T07:12:10.933Z,0.90
2022-12-27T07:14:38.647Z,0.90
2022-12-27T07:17:06.172Z,1.20
2022-12-27T07:19:33.509Z,0.90
2022-12-27T07:22:00.825Z,1.10
2022-12-27T07:24:28.227Z,1.10
2022-12-27T07:26:55.736Z,0.80
2022-12-27T07:29:23.258Z,0.90
2022-12-27T07:31:50.613Z,1.03
2022-12-27T07:34:18.039Z,0.80
2022-12-27T07:36:45.438Z,1.00
2022-12-27T07:39:13.109Z,0.80
2022-12-27T07:41:40.465Z,1.40
2022-12-27T07:44:08.084Z,1.13
2022-12-27T07:46:35.560Z,1.20
2022-12-27T07:49:03.149Z,1.03
2022-12-27T07:51:30.679Z,1.20
2022-12-27T07:53:58.171Z,1.00
2022-12-27T07:56:27.191Z,1.03
2022-12-27T07:58:55.802Z,1.17
2022-12-27T08:01:23.926Z,1.13
2022-12-27T08:03:51.629Z,1.20
2022-12-27T08:06:22.483Z,1.40
2022-12-27T08:08:50.388Z,1.43
2022-12-27T08:11:17.849Z,1.10
2022-12-27T08:13:45.708Z,1.30
2022-12-27T08:16:18.159Z,1.20
2022-12-27T08:18:46.009Z,1.10
2022-12-27T08:21:13.627Z,1.10
2022-12-27T08:23:41.071Z,1.20
2022-12-27T08:26:08.983Z,1.40
2022-12-27T08:28:36.748Z,1.17
2022-12-27T08:31:07.074Z,1.20
2022-12-27T08:33:34.875Z,1.50
2022-12-27T08:36:52.990Z,1.17
2022-12-27T08:38:56.491Z,1.13
2022-12-27T08:41:24.148Z,1.20
2022-12-27T08:43:51.514Z,1.20
2022-12-27T08:46:22.063Z,1.20
2022-12-27T08:48:49.775Z,1.30
2022-12-27T08:51:28.401Z,1.53
2022-12-27T08:54:00.477Z,1.37
2022-12-27T08:56:28.071Z,1.30
2022-12-27T08:58:55.489Z,1.33
2022-12-27T09:01:23.072Z,1.43
2022-12-27T09:03:50.513Z,1.40
2022-12-27T09:06:19.157Z,1.30
2022-12-27T09:08:47.507Z,1.40
2022-12-27T09:11:16.550Z,1.50
2022-12-27T09:13:44.155Z,1.40
2022-12-27T09:16:12.836Z,2.03
2022-12-27T09:18:40.458Z,1.70
2022-12-27T09:21:09.253Z,1.70
2022-12-27T09:23:37.120Z,1.37
2022-12-27T09:26:05.280Z,1.40
2022-12-27T09:28:32.965Z,1.70
2022-12-27T09:31:00.371Z,1.37
2022-12-27T09:33:28.505Z,1.50
2022-12-27T09:36:06.439Z,1.47
2022-12-27T09:38:34.033Z,1.60
2022-12-27T09:41:02.457Z,1.50
2022-12-27T09:43:41.414Z,1.50
2022-12-27T09:46:14.042Z,1.37
2022-12-27T09:48:41.910Z,1.33
2022-12-27T09:51:18.891Z,1.40
2022-12-27T09:54:01.717Z,1.20
2022-12-27T09:56:47.282Z,1.70
2022-12-27T09:59:28.127Z,1.30
2022-12-27T10:01:55.585Z,1.27
2022-12-27T10:04:23.354Z,1.10
2022-12-27T10:06:51.654Z,1.10
2022-12-27T10:09:39.724Z,1.10
2022-12-27T10:12:16.749Z,1.10
2022-12-27T10:14:53.101Z,1.40
2022-12-27T10:17:32.672Z,1.00
2022-12-27T10:20:12.812Z,1.10
2022-12-27T10:23:09.596Z,1.20
2022-12-27T10:25:37.971Z,0.93
2022-12-27T10:28:15.171Z,0.97
2022-12-27T10:30:43.301Z,1.27
2022-12-27T10:33:21.533Z,1.00
2022-12-27T10:35:49.440Z,1.20
2022-12-27T10:38:16.837Z,1.30
2022-12-27T10:40:52.508Z,1.03
2022-12-27T10:43:23.483Z,0.90
2022-12-27T10:45:50.865Z,1.27
2022-12-27T10:48:36.321Z,1.10
2022-12-27T10:51:10.124Z,0.97
2022-12-27T10:53:38.796Z,1.40
2022-12-27T10:56:09.073Z,1.10
2022-12-27T10:58:37.119Z,1.30
2022-12-27T11:01:04.511Z,1.10
2022-12-27T11:03:32.343Z,1.17
2022-12-27T11:06:01.214Z,1.07
2022-12-27T11:08:28.741Z,1.30
2022-12-27T11:11:14.660Z,1.10
2022-12-27T11:13:42.116Z,1.30
2022-12-27T11:16:28.249Z,1.67
2022-12-27T11:18:57.489Z,1.30
2022-12-27T11:21:28.039Z,1.97
2022-12-27T11:24:04.866Z,2.10
2022-12-27T11:26:42.106Z,4.60
2022-12-27T11:29:16.680Z,8.07
2022-12-27T11:31:48.424Z,3.20
2022-12-27T11:34:17.647Z,1.50
2022-12-27T11:36:46.982Z,1.63
2022-12-27T11:39:33.048Z,2.10
2022-12-27T11:42:01.505Z,1.37
2022-12-27T11:44:30.356Z,1.70
2022-12-27T11:47:00.663Z,1.20
2022-12-27T11:49:30.535Z,1.47
2022-12-27T11:51:57.944Z,1.70
2022-12-27T11:54:29.947Z,1.00
2022-12-27T11:57:06.759Z,0.87
2022-12-27T11:59:39.909Z,1.30
2022-12-27T12:02:26.908Z,1.40
2022-12-27T12:05:06.258Z,1.20
2022-12-27T12:07:46.050Z,0.90
2022-12-27T12:10:16.639Z,1.50
2022-12-27T12:12:44.000Z,1.20
2022-12-27T12:15:34.316Z,1.10
2022-12-27T12:18:20.387Z,1.10
2022-12-27T12:21:06.410Z,1.10
2022-12-27T12:23:52.430Z,1.17
2022-12-27T12:26:23.008Z,1.10
2022-12-27T12:28:59.284Z,0.93
2022-12-27T12:31:27.128Z,1.30
2022-12-27T12:33:54.459Z,1.10
2022-12-27T12:36:21.829Z,1.10
2022-12-27T12:39:18.757Z,1.03
2022-12-27T12:42:01.083Z,0.97
2022-12-27T12:44:35.119Z,1.03
2022-12-27T12:47:23.502Z,0.90
2022-12-27T12:49:57.020Z,1.03
2022-12-27T12:52:50.808Z,1.27
2022-12-27T12:55:27.169Z,1.20
2022-12-27T12:57:57.929Z,1.10
2022-12-27T13:00:25.623Z,1.30
2022-12-27T13:03:04.980Z,1.20
2022-12-27T13:05:51.137Z,1.00
2022-12-27T13:08:39.869Z,1.20
2022-12-27T13:11:25.427Z,1.10
2022-12-27T13:14:08.208Z,1.10
2022-12-27T13:16:41.653Z,1.20
2022-12-27T13:19:44.795Z,1.10
2022-12-27T13:22:17.980Z,1.20
2022-12-27T13:24:51.337Z,1.23
2022-12-27T13:27:24.921Z,1.00
2022-12-27T13:29:55.331Z,1.20
2022-12-27T13:32:42.877Z,1.00
2022-12-27T13:35:19.911Z,1.30
2022-12-27T13:37:47.705Z,1.40
2022-12-27T13:40:38.281Z,1.20
2022-12-27T13:43:14.844Z,1.57
2022-12-27T13:45:52.137Z,1.67
2022-12-27T13:48:37.805Z,1.40
2022-12-27T13:51:08.381Z,1.20
2022-12-27T13:53:56.110Z,1.10
2022-12-27T13:59:40.496Z,1.20
2022-12-27T14:02:30.781Z,1.00
2022-12-27T14:04:59.627Z,1.10
2022-12-27T14:07:30.594Z,1.10
2022-12-27T14:10:24.346Z,1.10
2022-12-27T14:12:58.907Z,1.00
2022-12-27T14:15:41.595Z,1.10
2022-12-27T14:18:09.009Z,1.00
2022-12-27T14:20:45.497Z,1.27
2022-12-27T14:23:42.331Z,0.80
2022-12-27T14:26:15.599Z,1.10
2022-12-27T14:29:02.043Z,1.27
2022-12-27T14:31:32.540Z,1.30
2022-12-27T14:34:16.718Z,1.03
2022-12-27T14:36:53.192Z,1.30
2022-12-27T14:39:26.566Z,1.00
2022-12-27T14:42:12.845Z,1.70
2022-12-27T14:45:03.577Z,1.40
2022-12-27T14:47:49.315Z,1.40
2022-12-27T14:50:24.897Z,0.90
2022-12-27T14:53:11.195Z,1.10
2022-12-27T14:55:47.804Z,1.40
2022-12-27T14:58:18.097Z,1.00
2022-12-27T15:01:05.733Z,1.27
2022-12-27T15:03:45.992Z,1.10
2022-12-27T15:06:35.177Z,1.50
2022-12-27T15:09:07.400Z,1.37
2022-12-27T15:11:37.947Z,1.10
2022-12-27T15:14:05.269Z,1.10
2022-12-27T15:16:38.797Z,1.30
2022-12-27T15:19:12.451Z,1.20
2022-12-27T15:21:45.783Z,1.67
2022-12-27T15:24:21.972Z,1.33
2022-12-27T15:26:49.342Z,1.60
2022-12-27T15:29:19.571Z,1.20
2022-12-27T15:31:46.905Z,1.60
2022-12-27T15:34:33.053Z,1.40
2022-12-27T15:37:00.516Z,1.50
2022-12-27T15:39:33.634Z,1.40
2022-12-27T15:42:10.228Z,1.60
2022-12-27T15:44:52.908Z,1.20
2022-12-27T15:47:35.682Z,1.30
2022-12-27T15:50:22.110Z,1.20
2022-12-27T15:52:55.073Z,1.40
2022-12-27T15:55:40.978Z,1.33
2022-12-27T15:58:14.969Z,1.20
2022-12-27T16:00:43.455Z,1.30
2022-12-27T16:03:29.596Z,1.27
2022-12-27T16:05:57.219Z,1.60
2022-12-27T16:08:26.684Z,1.13
2022-12-27T16:10:54.851Z,1.30
2022-12-27T16:13:27.696Z,1.50
2022-12-27T16:15:55.464Z,1.20
2022-12-27T16:18:22.799Z,1.33
2022-12-27T16:20:59.225Z,1.30
2022-12-27T16:23:28.603Z,1.10
2022-12-27T16:26:02.242Z,1.50
2022-12-27T16:28:31.088Z,1.70
2022-12-27T16:31:03.137Z,2.20
2022-12-27T16:33:41.380Z,1.60
2022-12-27T16:36:14.932Z,1.60
2022-12-27T16:38:45.782Z,2.33
2022-12-27T16:41:33.171Z,1.47
2022-12-27T16:44:00.657Z,1.67
2022-12-27T16:46:28.129Z,2.50
2022-12-27T16:49:14.400Z,1.63
2022-12-27T16:51:56.159Z,1.67
2022-12-27T16:54:28.956Z,1.70
2022-12-27T16:57:25.654Z,1.53
2022-12-27T16:59:55.875Z,1.50
2022-12-27T17:02:29.567Z,1.40
2022-12-27T17:05:00.131Z,1.40
2022-12-27T17:07:37.377Z,1.40
2022-12-27T17:10:23.117Z,2.10
2022-12-27T17:12:52.966Z,1.77
2022-12-27T17:15:21.464Z,1.60
2022-12-27T17:17:50.579Z,1.50
2022-12-27T17:20:18.775Z,4.47
2022-12-27T17:22:46.136Z,14.07
2022-12-27T17:25:18.551Z,3.57
2022-12-27T17:27:54.760Z,2.23
2022-12-27T17:30:34.344Z,2.03
2022-12-27T17:33:07.744Z,1.80
2022-12-27T17:35:47.465Z,1.70
2022-12-27T17:38:14.812Z,1.60
2022-12-27T17:40:45.429Z,1.80
2022-12-27T17:43:43.722Z,1.70
2022-12-27T17:46:23.119Z,1.90
2022-12-27T17:48:53.694Z,1.83
2022-12-27T17:51:23.548Z,1.70
2022-12-27T17:54:10.572Z,1.90
2022-12-27T17:57:15.943Z,1.73
2022-12-27T17:59:44.771Z,1.80
2022-12-27T18:02:12.208Z,1.70
2022-12-27T18:04:42.277Z,2.10
2022-12-27T18:07:13.541Z,1.60
2022-12-27T18:09:48.089Z,1.90
2022-12-27T18:12:19.473Z,1.67
2022-12-27T18:14:51.275Z,1.40
2022-12-27T18:17:29.054Z,1.50
2022-12-27T18:19:57.025Z,1.40
2022-12-27T18:22:24.566Z,1.40
2022-12-27T18:24:51.950Z,1.37
2022-12-27T18:27:25.457Z,1.40
2022-12-27T18:29:52.910Z,1.40
2022-12-27T18:32:20.541Z,1.67
2022-12-27T18:34:59.750Z,1.43
2022-12-27T18:37:27.709Z,1.30
2022-12-27T18:40:00.559Z,1.60
2022-12-27T18:42:31.610Z,1.60
2022-12-27T18:45:02.065Z,1.40
2022-12-27T18:47:29.592Z,1.73
2022-12-27T18:50:01.439Z,1.37
2022-12-27T18:52:38.496Z,1.50
2022-12-27T18:55:27.609Z,1.43
2022-12-27T18:58:19.742Z,1.50
2022-12-27T19:00:49.194Z,5.40
2022-12-27T19:03:18.182Z,5.70
2022-12-27T19:05:58.067Z,4.30
2022-12-27T19:08:28.903Z,3.50
2022-12-27T19:10:56.413Z,3.73
2022-12-27T19:13:28.784Z,3.40
2022-12-27T19:15:57.016Z,2.77
2022-12-27T19:18:24.486Z,2.40
2022-12-27T19:20:54.177Z,2.20
2022-12-27T19:23:32.630Z,2.20
2022-12-27T19:26:04.943Z,2.70
2022-12-27T19:28:33.100Z,2.00
2022-12-27T19:31:18.113Z,1.97
2022-12-27T19:33:51.246Z,2.13
2022-12-27T19:36:22.245Z,1.93
2022-12-27T19:38:49.871Z,1.90
2022-12-27T19:41:17.375Z,1.90
2022-12-27T19:43:45.667Z,1.70
2022-12-27T19:46:13.811Z,2.17
2022-12-27T19:48:41.926Z,1.77
2022-12-27T19:51:14.314Z,1.73
2022-12-27T19:53:43.229Z,1.70
2022-12-27T19:56:11.543Z,2.10
2022-12-27T19:58:39.261Z,1.80
2022-12-27T20:01:07.250Z,1.70
2022-12-27T20:03:34.800Z,1.70
2022-12-27T20:06:14.687Z,1.63
2022-12-27T20:08:45.279Z,1.90
2022-12-27T20:11:14.951Z,1.80
2022-12-27T20:13:42.615Z,1.67
2022-12-27T20:16:12.049Z,1.97
2022-12-27T20:18:40.364Z,1.70
2022-12-27T20:21:08.448Z,2.07
2022-12-27T20:23:35.890Z,1.67
2022-12-27T20:26:03.379Z,1.90
2022-12-27T20:28:30.905Z,1.90
2022-12-27T20:30:58.714Z,1.63
2022-12-27T20:33:26.155Z,1.43
2022-12-27T20:35:59.729Z,1.80
2022-12-27T20:38:27.243Z,1.80
2022-12-27T20:40:54.643Z,1.47
2022-12-27T20:43:22.228Z,1.67
2022-12-27T20:45:49.665Z,1.83
2022-12-27T20:48:17.179Z,1.83
2022-12-27T20:50:44.512Z,1.80
2022-12-27T20:53:11.879Z,1.73
2022-12-27T20:55:39.253Z,1.80
2022-12-27T20:58:06.725Z,2.07
2022-12-27T21:00:34.263Z,2.00
2022-12-27T21:03:01.826Z,2.17
2022-12-27T21:05:29.383Z,3.27
2022-12-27T21:07:56.731Z,3.20
2022-12-27T21:10:24.133Z,2.37
2022-12-27T21:12:51.502Z,1.70
2022-12-27T21:15:18.882Z,2.00
2022-12-27T21:17:46.337Z,2.27
2022-12-27T21:20:13.971Z,2.23
2022-12-27T21:22:41.409Z,2.20
2022-12-27T21:25:08.992Z,2.37
2022-12-27T21:27:36.351Z,2.20
2022-12-27T21:30:04.849Z,2.30
2022-12-27T21:32:32.540Z,2.00
2022-12-27T21:35:00.098Z,2.50
2022-12-27T21:37:27.553Z,2.50
2022-12-27T21:39:54.897Z,2.37
2022-12-27T21:42:22.311Z,2.23
2022-12-27T21:44:49.673Z,2.27
2022-12-27T21:47:17.039Z,2.63
2022-12-27T21:49:44.414Z,2.00
2022-12-27T21:52:11.756Z,2.70
2022-12-27T21:54:39.185Z,2.50
2022-12-27T21:57:06.594Z,2.67
2022-12-27T21:59:34.066Z,2.73
2022-12-27T22:02:01.585Z,2.97
2022-12-27T22:04:29.095Z,3.20
2022-12-27T22:06:56.499Z,3.00
2022-12-27T22:09:24.131Z,3.53
2022-12-27T22:11:51.496Z,3.43
2022-12-27T22:14:24.968Z,3.27
2022-12-27T22:16:53.207Z,3.70
2022-12-27T22:19:20.682Z,3.93
2022-12-27T22:21:48.022Z,4.30
2022-12-27T22:24:19.674Z,4.30
2022-12-27T22:26:48.753Z,5.20
2022-12-27T22:29:16.321Z,11.87
2022-12-27T22:31:43.691Z,9.07
2022-12-27T22:34:11.179Z,8.93
2022-12-27T22:36:38.574Z,7.93
2022-12-27T22:39:06.449Z,5.53
2022-12-27T22:41:35.299Z,4.73
2022-12-27T22:44:13.575Z,5.43
2022-12-27T22:49:28.989Z,4.30
2022-12-27T22:51:56.392Z,4.50
2022-12-27T22:55:04.366Z,4.17
2022-12-27T22:57:11.283Z,4.13
2022-12-27T22:59:38.839Z,4.80
2022-12-27T23:02:06.267Z,4.10
2022-12-27T23:04:33.893Z,4.03
2022-12-27T23:07:02.207Z,4.37
2022-12-27T23:09:30.165Z,3.70
2022-12-27T23:11:57.720Z,4.40
2022-12-27T23:14:25.039Z,4.00
2022-12-27T23:16:52.449Z,3.83
2022-12-27T23:19:21.555Z,3.40
2022-12-27T23:21:49.886Z,3.57
2022-12-27T23:24:17.482Z,3.60
2022-12-27T23:26:44.876Z,3.43
2022-12-27T23:29:13.512Z,3.40
2022-12-27T23:31:54.970Z,3.40
2022-12-27T23:34:27.582Z,3.20
2022-12-27T23:36:55.874Z,3.23
2022-12-27T23:39:23.349Z,3.40
2022-12-27T23:41:50.658Z,3.23
2022-12-27T23:44:32.813Z,2.90
2022-12-27T23:47:02.357Z,3.67
2022-12-27T23:49:29.912Z,3.00
2022-12-27T23:51:57.343Z,3.10
2022-12-27T23:54:24.672Z,2.80
2022-12-27T23:56:52.061Z,2.50
2022-12-27T23:59:19.375Z,2.80
